sensor_id;sensor_type;location;lat;lon;timestamp;temperature;humidity
770;DHT22;368;48.698;9.116;2023-04-25T00:00:17;7.20;99.90
770;DHT22;368;48.698;9.116;2023-04-25T00:02:44;7.00;99.90
770;DHT22;368;48.698;9.116;2023-04-25T00:05:11;7.10;99.90
770;DHT22;368;48.698;9.116;2023-04-25T00:07:41;6.90;99.90
770;DHT22;368;48.698;9.116;2023-04-25T00:10:09;7.00;99.90
770;DHT22;368;48.698;9.116;2023-04-25T00:12:37;6.90;99.90
770;DHT22;368;48.698;9.116;2023-04-25T00:15:05;6.90;99.90
770;DHT22;368;48.698;9.116;2023-04-25T00:17:32;7.00;99.90
770;DHT22;368;48.698;9.116;2023-04-25T00:20:00;7.10;99.90
770;DHT22;368;48.698;9.116;2023-04-25T00:22:30;6.80;99.90
770;DHT22;368;48.698;9.116;2023-04-25T00:24:58;6.80;99.90
770;DHT22;368;48.698;9.116;2023-04-25T00:27:26;6.90;99.90
770;DHT22;368;48.698;9.116;2023-04-25T00:29:53;6.90;99.90
770;DHT22;368;48.698;9.116;2023-04-25T00:32:19;6.90;99.90
770;DHT22;368;48.698;9.116;2023-04-25T00:34:46;6.90;99.90
770;DHT22;368;48.698;9.116;2023-04-25T00:37:13;6.60;99.90
770;DHT22;368;48.698;9.116;2023-04-25T00:39:40;6.70;99.90
770;DHT22;368;48.698;9.116;2023-04-25T00:42:08;6.80;99.90
770;DHT22;368;48.698;9.116;2023-04-25T00:44:35;6.60;99.90
770;DHT22;368;48.698;9.116;2023-04-25T00:47:03;7.00;99.90
770;DHT22;368;48.698;9.116;2023-04-25T00:49:29;6.80;99.90
770;DHT22;368;48.698;9.116;2023-04-25T00:51:56;6.70;99.90
770;DHT22;368;48.698;9.116;2023-04-25T00:54:23;6.80;99.90
770;DHT22;368;48.698;9.116;2023-04-25T00:56:51;6.70;99.90
770;DHT22;368;48.698;9.116;2023-04-25T00:59:20;6.80;99.90
770;DHT22;368;48.698;9.116;2023-04-25T01:01:47;6.90;99.90
770;DHT22;368;48.698;9.116;2023-04-25T01:04:14;6.70;99.90
770;DHT22;368;48.698;9.116;2023-04-25T01:06:41;6.80;99.90
770;DHT22;368;48.698;9.116;2023-04-25T01:09:08;7.00;99.90
770;DHT22;368;48.698;9.116;2023-04-25T01:11:35;6.90;99.90
770;DHT22;368;48.698;9.116;2023-04-25T01:14:01;6.80;99.90
770;DHT22;368;48.698;9.116;2023-04-25T01:16:30;6.90;99.90
770;DHT22;368;48.698;9.116;2023-04-25T01:18:57;6.80;99.90
770;DHT22;368;48.698;9.116;2023-04-25T01:21:26;6.90;99.90
770;DHT22;368;48.698;9.116;2023-04-25T01:23:55;6.90;99.90
770;DHT22;368;48.698;9.116;2023-04-25T01:26:22;6.90;99.90
770;DHT22;368;48.698;9.116;2023-04-25T01:28:50;7.00;99.90
770;DHT22;368;48.698;9.116;2023-04-25T01:31:17;7.10;99.90
770;DHT22;368;48.698;9.116;2023-04-25T01:33:45;7.00;99.90
770;DHT22;368;48.698;9.116;2023-04-25T01:36:13;7.00;99.90
770;DHT22;368;48.698;9.116;2023-04-25T01:38:42;7.00;99.90
770;DHT22;368;48.698;9.116;2023-04-25T01:41:09;7.00;99.90
770;DHT22;368;48.698;9.116;2023-04-25T01:43:36;6.90;99.90
770;DHT22;368;48.698;9.116;2023-04-25T01:46:03;7.00;99.90
770;DHT22;368;48.698;9.116;2023-04-25T01:48:30;7.00;99.90
770;DHT22;368;48.698;9.116;2023-04-25T01:50:57;7.10;99.90
770;DHT22;368;48.698;9.116;2023-04-25T01:53:24;7.00;99.90
770;DHT22;368;48.698;9.116;2023-04-25T01:55:53;6.60;99.90
770;DHT22;368;48.698;9.116;2023-04-25T01:58:20;6.60;99.90
770;DHT22;368;48.698;9.116;2023-04-25T02:00:46;6.60;99.90
770;DHT22;368;48.698;9.116;2023-04-25T02:03:13;6.50;99.90
770;DHT22;368;48.698;9.116;2023-04-25T02:05:40;6.60;99.90
770;DHT22;368;48.698;9.116;2023-04-25T02:08:08;6.50;99.90
770;DHT22;368;48.698;9.116;2023-04-25T02:10:35;6.60;99.90
770;DHT22;368;48.698;9.116;2023-04-25T02:13:03;6.50;99.90
770;DHT22;368;48.698;9.116;2023-04-25T02:15:30;6.50;99.90
770;DHT22;368;48.698;9.116;2023-04-25T02:17:57;6.50;99.90
770;DHT22;368;48.698;9.116;2023-04-25T02:20:26;6.50;99.90
770;DHT22;368;48.698;9.116;2023-04-25T02:22:53;6.30;99.90
770;DHT22;368;48.698;9.116;2023-04-25T02:25:20;6.40;99.90
770;DHT22;368;48.698;9.116;2023-04-25T02:27:47;6.20;99.90
770;DHT22;368;48.698;9.116;2023-04-25T02:30:15;6.40;99.90
770;DHT22;368;48.698;9.116;2023-04-25T02:32:42;6.50;99.90
770;DHT22;368;48.698;9.116;2023-04-25T02:35:09;6.20;99.90
770;DHT22;368;48.698;9.116;2023-04-25T02:37:37;6.40;99.90
770;DHT22;368;48.698;9.116;2023-04-25T02:40:06;6.30;99.90
770;DHT22;368;48.698;9.116;2023-04-25T02:42:33;6.30;99.90
770;DHT22;368;48.698;9.116;2023-04-25T02:45:00;6.50;99.90
770;DHT22;368;48.698;9.116;2023-04-25T02:47:28;6.60;99.90
770;DHT22;368;48.698;9.116;2023-04-25T02:49:55;6.20;99.90
770;DHT22;368;48.698;9.116;2023-04-25T02:52:22;6.30;99.90
770;DHT22;368;48.698;9.116;2023-04-25T02:54:49;6.20;99.90
770;DHT22;368;48.698;9.116;2023-04-25T02:57:16;6.30;99.90
770;DHT22;368;48.698;9.116;2023-04-25T02:59:42;6.20;99.90
770;DHT22;368;48.698;9.116;2023-04-25T03:02:09;6.10;99.90
770;DHT22;368;48.698;9.116;2023-04-25T03:04:37;6.20;99.90
770;DHT22;368;48.698;9.116;2023-04-25T03:07:05;6.10;99.90
770;DHT22;368;48.698;9.116;2023-04-25T03:09:32;6.20;99.90
770;DHT22;368;48.698;9.116;2023-04-25T03:11:58;6.40;99.90
770;DHT22;368;48.698;9.116;2023-04-25T03:14:25;6.10;99.90
770;DHT22;368;48.698;9.116;2023-04-25T03:16:52;6.20;99.90
770;DHT22;368;48.698;9.116;2023-04-25T03:19:19;6.10;99.90
770;DHT22;368;48.698;9.116;2023-04-25T03:21:47;6.30;99.90
770;DHT22;368;48.698;9.116;2023-04-25T03:24:14;6.10;99.90
770;DHT22;368;48.698;9.116;2023-04-25T03:26:42;6.10;99.90
770;DHT22;368;48.698;9.116;2023-04-25T03:29:09;6.10;99.90
770;DHT22;368;48.698;9.116;2023-04-25T03:31:35;6.30;99.90
770;DHT22;368;48.698;9.116;2023-04-25T03:34:02;6.10;99.90
770;DHT22;368;48.698;9.116;2023-04-25T03:36:29;6.30;99.90
770;DHT22;368;48.698;9.116;2023-04-25T03:38:57;6.30;99.90
770;DHT22;368;48.698;9.116;2023-04-25T03:41:24;6.40;99.90
770;DHT22;368;48.698;9.116;2023-04-25T03:43:51;6.20;99.90
770;DHT22;368;48.698;9.116;2023-04-25T03:46:18;6.30;99.90
770;DHT22;368;48.698;9.116;2023-04-25T03:48:44;6.10;99.90
770;DHT22;368;48.698;9.116;2023-04-25T03:51:11;6.00;99.90
770;DHT22;368;48.698;9.116;2023-04-25T03:53:38;5.80;99.90
770;DHT22;368;48.698;9.116;2023-04-25T03:56:06;5.90;99.90
770;DHT22;368;48.698;9.116;2023-04-25T03:58:33;5.70;99.90
770;DHT22;368;48.698;9.116;2023-04-25T04:01:00;5.80;99.90
770;DHT22;368;48.698;9.116;2023-04-25T04:03:28;5.90;99.90
770;DHT22;368;48.698;9.116;2023-04-25T04:05:55;6.00;99.90
770;DHT22;368;48.698;9.116;2023-04-25T04:08:22;6.10;99.90
770;DHT22;368;48.698;9.116;2023-04-25T04:10:48;6.30;99.90
770;DHT22;368;48.698;9.116;2023-04-25T04:13:16;6.40;99.90
770;DHT22;368;48.698;9.116;2023-04-25T04:15:43;6.20;99.90
770;DHT22;368;48.698;9.116;2023-04-25T04:18:10;6.30;99.90
770;DHT22;368;48.698;9.116;2023-04-25T04:20:37;6.20;99.90
770;DHT22;368;48.698;9.116;2023-04-25T04:23:03;6.30;99.90
770;DHT22;368;48.698;9.116;2023-04-25T04:25:30;6.20;99.90
770;DHT22;368;48.698;9.116;2023-04-25T04:27:57;5.90;99.90
770;DHT22;368;48.698;9.116;2023-04-25T04:30:26;5.80;99.90
770;DHT22;368;48.698;9.116;2023-04-25T04:32:55;5.80;99.90
770;DHT22;368;48.698;9.116;2023-04-25T04:35:22;5.90;99.90
770;DHT22;368;48.698;9.116;2023-04-25T04:37:48;5.60;99.90
770;DHT22;368;48.698;9.116;2023-04-25T04:40:16;6.00;99.90
770;DHT22;368;48.698;9.116;2023-04-25T04:42:44;6.00;99.90
770;DHT22;368;48.698;9.116;2023-04-25T04:45:11;5.80;99.90
770;DHT22;368;48.698;9.116;2023-04-25T04:47:40;5.90;99.90
770;DHT22;368;48.698;9.116;2023-04-25T04:50:07;5.90;99.90
770;DHT22;368;48.698;9.116;2023-04-25T04:52:35;5.90;99.90
770;DHT22;368;48.698;9.116;2023-04-25T04:55:02;6.20;99.90
770;DHT22;368;48.698;9.116;2023-04-25T04:57:29;6.40;99.90
770;DHT22;368;48.698;9.116;2023-04-25T04:59:58;6.30;99.90
770;DHT22;368;48.698;9.116;2023-04-25T05:02:26;6.20;99.90
770;DHT22;368;48.698;9.116;2023-04-25T05:04:56;6.30;99.90
770;DHT22;368;48.698;9.116;2023-04-25T05:07:23;6.40;99.90
770;DHT22;368;48.698;9.116;2023-04-25T05:09:49;6.40;99.90
770;DHT22;368;48.698;9.116;2023-04-25T05:12:16;6.60;99.90
770;DHT22;368;48.698;9.116;2023-04-25T05:14:43;6.40;99.90
770;DHT22;368;48.698;9.116;2023-04-25T05:17:10;6.40;99.90
770;DHT22;368;48.698;9.116;2023-04-25T05:19:37;6.70;99.90
770;DHT22;368;48.698;9.116;2023-04-25T05:22:06;6.70;99.90
770;DHT22;368;48.698;9.116;2023-04-25T05:24:32;6.60;99.90
770;DHT22;368;48.698;9.116;2023-04-25T05:26:59;7.00;99.90
770;DHT22;368;48.698;9.116;2023-04-25T05:29:26;6.70;99.90
770;DHT22;368;48.698;9.116;2023-04-25T05:31:53;6.70;99.90
770;DHT22;368;48.698;9.116;2023-04-25T05:34:20;6.80;99.90
770;DHT22;368;48.698;9.116;2023-04-25T05:36:46;6.80;99.90
770;DHT22;368;48.698;9.116;2023-04-25T05:39:16;6.80;99.90
770;DHT22;368;48.698;9.116;2023-04-25T05:41:43;6.80;99.90
770;DHT22;368;48.698;9.116;2023-04-25T05:44:10;6.80;99.90
770;DHT22;368;48.698;9.116;2023-04-25T05:46:37;6.90;99.90
770;DHT22;368;48.698;9.116;2023-04-25T05:49:04;7.10;99.90
770;DHT22;368;48.698;9.116;2023-04-25T05:51:31;7.20;99.90
770;DHT22;368;48.698;9.116;2023-04-25T05:53:58;7.10;99.90
770;DHT22;368;48.698;9.116;2023-04-25T05:56:26;6.90;99.90
770;DHT22;368;48.698;9.116;2023-04-25T05:58:53;7.10;99.90
770;DHT22;368;48.698;9.116;2023-04-25T06:01:22;7.10;99.90
770;DHT22;368;48.698;9.116;2023-04-25T06:03:49;7.40;99.90
770;DHT22;368;48.698;9.116;2023-04-25T06:06:17;7.30;99.90
770;DHT22;368;48.698;9.116;2023-04-25T06:08:44;7.50;99.90
770;DHT22;368;48.698;9.116;2023-04-25T06:11:10;7.40;99.90
770;DHT22;368;48.698;9.116;2023-04-25T06:13:39;7.30;99.90
770;DHT22;368;48.698;9.116;2023-04-25T06:16:06;7.60;99.90
770;DHT22;368;48.698;9.116;2023-04-25T06:18:33;7.70;99.90
770;DHT22;368;48.698;9.116;2023-04-25T06:21:00;7.80;99.90
770;DHT22;368;48.698;9.116;2023-04-25T06:23:26;7.90;99.90
770;DHT22;368;48.698;9.116;2023-04-25T06:25:53;8.10;99.90
770;DHT22;368;48.698;9.116;2023-04-25T06:28:20;8.10;99.90
770;DHT22;368;48.698;9.116;2023-04-25T06:30:50;7.80;99.90
770;DHT22;368;48.698;9.116;2023-04-25T06:33:17;8.00;99.90
770;DHT22;368;48.698;9.116;2023-04-25T06:35:43;7.90;99.90
770;DHT22;368;48.698;9.116;2023-04-25T06:38:11;7.90;99.90
770;DHT22;368;48.698;9.116;2023-04-25T06:40:37;8.00;99.90
770;DHT22;368;48.698;9.116;2023-04-25T06:43:04;7.50;99.90
770;DHT22;368;48.698;9.116;2023-04-25T06:45:31;7.70;99.90
770;DHT22;368;48.698;9.116;2023-04-25T06:47:59;7.70;99.90
770;DHT22;368;48.698;9.116;2023-04-25T06:50:26;7.90;99.90
770;DHT22;368;48.698;9.116;2023-04-25T06:52:53;8.00;99.90
770;DHT22;368;48.698;9.116;2023-04-25T06:55:20;7.90;99.90
770;DHT22;368;48.698;9.116;2023-04-25T06:57:47;7.80;99.90
770;DHT22;368;48.698;9.116;2023-04-25T07:00:14;7.50;99.90
770;DHT22;368;48.698;9.116;2023-04-25T07:02:41;7.30;99.90
770;DHT22;368;48.698;9.116;2023-04-25T07:05:10;7.60;99.90
770;DHT22;368;48.698;9.116;2023-04-25T07:07:37;7.90;99.90
770;DHT22;368;48.698;9.116;2023-04-25T07:10:04;7.80;99.90
770;DHT22;368;48.698;9.116;2023-04-25T07:12:31;7.80;99.90
770;DHT22;368;48.698;9.116;2023-04-25T07:14:58;7.90;99.90
770;DHT22;368;48.698;9.116;2023-04-25T07:17:31;7.70;99.90
770;DHT22;368;48.698;9.116;2023-04-25T07:19:58;7.60;99.90
770;DHT22;368;48.698;9.116;2023-04-25T07:22:26;7.70;99.90
770;DHT22;368;48.698;9.116;2023-04-25T07:24:53;7.70;99.90
770;DHT22;368;48.698;9.116;2023-04-25T07:27:20;7.90;99.90
770;DHT22;368;48.698;9.116;2023-04-25T07:29:47;7.90;99.90
770;DHT22;368;48.698;9.116;2023-04-25T07:32:14;8.00;99.90
770;DHT22;368;48.698;9.116;2023-04-25T07:34:40;7.50;99.90
770;DHT22;368;48.698;9.116;2023-04-25T07:37:07;7.80;99.90
770;DHT22;368;48.698;9.116;2023-04-25T07:39:35;7.80;99.90
770;DHT22;368;48.698;9.116;2023-04-25T07:42:03;8.00;99.90
770;DHT22;368;48.698;9.116;2023-04-25T07:44:31;8.00;99.90
770;DHT22;368;48.698;9.116;2023-04-25T07:47:04;7.80;99.90
770;DHT22;368;48.698;9.116;2023-04-25T07:49:31;7.70;99.90
770;DHT22;368;48.698;9.116;2023-04-25T07:51:57;7.70;99.90
770;DHT22;368;48.698;9.116;2023-04-25T07:54:24;8.20;99.90
770;DHT22;368;48.698;9.116;2023-04-25T07:56:53;7.90;99.90
770;DHT22;368;48.698;9.116;2023-04-25T07:59:20;7.80;99.90
770;DHT22;368;48.698;9.116;2023-04-25T08:01:47;7.90;99.90
770;DHT22;368;48.698;9.116;2023-04-25T08:04:14;7.70;99.90
770;DHT22;368;48.698;9.116;2023-04-25T08:06:42;7.50;99.90
770;DHT22;368;48.698;9.116;2023-04-25T08:09:09;7.60;99.90
770;DHT22;368;48.698;9.116;2023-04-25T08:11:36;7.20;99.90
770;DHT22;368;48.698;9.116;2023-04-25T08:14:05;7.20;99.90
770;DHT22;368;48.698;9.116;2023-04-25T08:16:32;7.20;99.90
770;DHT22;368;48.698;9.116;2023-04-25T08:18:59;7.50;99.90
770;DHT22;368;48.698;9.116;2023-04-25T08:21:26;7.40;99.90
770;DHT22;368;48.698;9.116;2023-04-25T08:23:53;7.50;99.90
770;DHT22;368;48.698;9.116;2023-04-25T08:26:20;7.60;99.90
770;DHT22;368;48.698;9.116;2023-04-25T08:28:46;7.60;99.90
770;DHT22;368;48.698;9.116;2023-04-25T08:31:15;7.50;99.90
770;DHT22;368;48.698;9.116;2023-04-25T08:33:42;7.70;99.90
770;DHT22;368;48.698;9.116;2023-04-25T08:36:09;7.50;99.90
770;DHT22;368;48.698;9.116;2023-04-25T08:38:35;7.60;99.90
770;DHT22;368;48.698;9.116;2023-04-25T08:41:03;7.60;99.90
770;DHT22;368;48.698;9.116;2023-04-25T08:43:32;7.50;99.90
770;DHT22;368;48.698;9.116;2023-04-25T08:46:00;7.30;99.90
770;DHT22;368;48.698;9.116;2023-04-25T08:48:28;7.50;99.90
770;DHT22;368;48.698;9.116;2023-04-25T08:50:56;7.30;99.90
770;DHT22;368;48.698;9.116;2023-04-25T08:53:26;7.20;99.90
770;DHT22;368;48.698;9.116;2023-04-25T08:55:55;7.30;99.90
770;DHT22;368;48.698;9.116;2023-04-25T08:58:23;7.20;99.90
770;DHT22;368;48.698;9.116;2023-04-25T09:00:51;7.80;99.90
770;DHT22;368;48.698;9.116;2023-04-25T09:03:18;7.70;99.90
770;DHT22;368;48.698;9.116;2023-04-25T09:05:46;7.60;99.90
770;DHT22;368;48.698;9.116;2023-04-25T09:08:13;7.50;99.90
770;DHT22;368;48.698;9.116;2023-04-25T09:10:40;7.40;99.90
770;DHT22;368;48.698;9.116;2023-04-25T09:13:08;7.50;99.90
770;DHT22;368;48.698;9.116;2023-04-25T09:15:48;7.50;99.90
770;DHT22;368;48.698;9.116;2023-04-25T09:18:22;7.60;99.90
770;DHT22;368;48.698;9.116;2023-04-25T09:20:51;7.50;99.90
770;DHT22;368;48.698;9.116;2023-04-25T09:23:19;7.80;99.90
770;DHT22;368;48.698;9.116;2023-04-25T09:25:47;7.60;99.90
770;DHT22;368;48.698;9.116;2023-04-25T09:28:14;7.70;99.90
770;DHT22;368;48.698;9.116;2023-04-25T09:30:42;7.60;99.90
770;DHT22;368;48.698;9.116;2023-04-25T09:33:09;7.70;99.90
770;DHT22;368;48.698;9.116;2023-04-25T09:35:37;7.50;99.90
770;DHT22;368;48.698;9.116;2023-04-25T09:38:10;7.40;99.90
770;DHT22;368;48.698;9.116;2023-04-25T09:40:41;7.40;99.90
770;DHT22;368;48.698;9.116;2023-04-25T09:43:19;7.00;99.90
770;DHT22;368;48.698;9.116;2023-04-25T09:45:46;6.90;99.90
770;DHT22;368;48.698;9.116;2023-04-25T09:48:17;6.90;99.90
770;DHT22;368;48.698;9.116;2023-04-25T09:50:44;6.70;99.90
770;DHT22;368;48.698;9.116;2023-04-25T09:53:12;7.00;99.90
770;DHT22;368;48.698;9.116;2023-04-25T09:55:40;6.70;99.90
770;DHT22;368;48.698;9.116;2023-04-25T09:58:10;7.00;99.90
770;DHT22;368;48.698;9.116;2023-04-25T10:00:38;7.00;99.90
770;DHT22;368;48.698;9.116;2023-04-25T10:03:05;7.00;99.90
770;DHT22;368;48.698;9.116;2023-04-25T10:05:33;6.90;99.90
770;DHT22;368;48.698;9.116;2023-04-25T10:08:03;6.60;99.90
770;DHT22;368;48.698;9.116;2023-04-25T10:10:32;6.80;99.90
770;DHT22;368;48.698;9.116;2023-04-25T10:13:04;6.70;99.90
770;DHT22;368;48.698;9.116;2023-04-25T10:15:34;6.70;99.90
770;DHT22;368;48.698;9.116;2023-04-25T10:18:02;6.70;99.90
770;DHT22;368;48.698;9.116;2023-04-25T10:20:29;6.60;99.90
770;DHT22;368;48.698;9.116;2023-04-25T10:23:02;6.50;99.90
770;DHT22;368;48.698;9.116;2023-04-25T10:25:31;6.90;99.90
770;DHT22;368;48.698;9.116;2023-04-25T10:27:59;7.30;99.90
770;DHT22;368;48.698;9.116;2023-04-25T10:30:27;7.20;99.90
770;DHT22;368;48.698;9.116;2023-04-25T10:32:55;7.20;99.90
770;DHT22;368;48.698;9.116;2023-04-25T10:35:25;7.20;99.90
770;DHT22;368;48.698;9.116;2023-04-25T10:38:04;7.20;99.90
770;DHT22;368;48.698;9.116;2023-04-25T10:40:33;7.30;99.90
770;DHT22;368;48.698;9.116;2023-04-25T10:43:34;7.20;99.90
770;DHT22;368;48.698;9.116;2023-04-25T10:46:02;7.40;99.90
770;DHT22;368;48.698;9.116;2023-04-25T10:48:30;7.40;99.90
770;DHT22;368;48.698;9.116;2023-04-25T10:51:09;7.70;99.90
770;DHT22;368;48.698;9.116;2023-04-25T10:53:37;7.60;99.90
770;DHT22;368;48.698;9.116;2023-04-25T10:56:11;7.30;99.90
770;DHT22;368;48.698;9.116;2023-04-25T10:58:42;7.70;99.90
770;DHT22;368;48.698;9.116;2023-04-25T11:01:09;7.50;99.90
770;DHT22;368;48.698;9.116;2023-04-25T11:03:40;7.80;99.90
770;DHT22;368;48.698;9.116;2023-04-25T11:06:15;7.70;99.90
770;DHT22;368;48.698;9.116;2023-04-25T11:08:48;7.50;99.90
770;DHT22;368;48.698;9.116;2023-04-25T11:11:18;7.40;99.90
770;DHT22;368;48.698;9.116;2023-04-25T11:13:48;7.70;99.90
770;DHT22;368;48.698;9.116;2023-04-25T11:16:15;7.50;99.90
770;DHT22;368;48.698;9.116;2023-04-25T11:18:42;7.30;99.90
770;DHT22;368;48.698;9.116;2023-04-25T11:21:09;7.40;99.90
770;DHT22;368;48.698;9.116;2023-04-25T11:23:36;7.50;99.90
770;DHT22;368;48.698;9.116;2023-04-25T11:26:03;7.40;99.90
770;DHT22;368;48.698;9.116;2023-04-25T11:28:31;7.20;99.90
770;DHT22;368;48.698;9.116;2023-04-25T11:30:58;7.20;99.90
770;DHT22;368;48.698;9.116;2023-04-25T11:33:25;7.20;99.90
770;DHT22;368;48.698;9.116;2023-04-25T11:35:54;7.20;99.90
770;DHT22;368;48.698;9.116;2023-04-25T11:38:22;6.90;99.90
770;DHT22;368;48.698;9.116;2023-04-25T11:40:52;7.00;99.90
770;DHT22;368;48.698;9.116;2023-04-25T11:43:20;7.30;99.90
770;DHT22;368;48.698;9.116;2023-04-25T11:45:50;7.60;99.90
770;DHT22;368;48.698;9.116;2023-04-25T11:48:17;7.50;99.90
770;DHT22;368;48.698;9.116;2023-04-25T11:50:46;8.00;99.90
770;DHT22;368;48.698;9.116;2023-04-25T11:53:13;8.30;99.90
770;DHT22;368;48.698;9.116;2023-04-25T11:55:40;8.60;99.90
770;DHT22;368;48.698;9.116;2023-04-25T11:58:07;8.40;99.90
770;DHT22;368;48.698;9.116;2023-04-25T12:00:34;8.20;99.90
770;DHT22;368;48.698;9.116;2023-04-25T12:03:03;8.30;99.90
770;DHT22;368;48.698;9.116;2023-04-25T12:05:31;8.20;99.90
770;DHT22;368;48.698;9.116;2023-04-25T12:08:09;8.40;99.90
770;DHT22;368;48.698;9.116;2023-04-25T12:10:37;8.70;99.90
770;DHT22;368;48.698;9.116;2023-04-25T12:13:18;8.90;99.90
770;DHT22;368;48.698;9.116;2023-04-25T12:15:45;9.00;99.90
770;DHT22;368;48.698;9.116;2023-04-25T12:18:14;8.90;99.90
770;DHT22;368;48.698;9.116;2023-04-25T12:20:41;8.40;99.90
770;DHT22;368;48.698;9.116;2023-04-25T12:23:08;8.50;99.90
770;DHT22;368;48.698;9.116;2023-04-25T12:25:37;8.60;99.90
770;DHT22;368;48.698;9.116;2023-04-25T12:28:12;8.60;99.90
770;DHT22;368;48.698;9.116;2023-04-25T12:30:56;8.60;99.90
770;DHT22;368;48.698;9.116;2023-04-25T12:33:26;8.80;99.90
770;DHT22;368;48.698;9.116;2023-04-25T12:35:53;9.20;99.90
770;DHT22;368;48.698;9.116;2023-04-25T12:38:23;8.70;99.90
770;DHT22;368;48.698;9.116;2023-04-25T12:40:51;8.90;99.90
770;DHT22;368;48.698;9.116;2023-04-25T12:43:18;9.00;99.90
770;DHT22;368;48.698;9.116;2023-04-25T12:45:45;8.70;99.90
770;DHT22;368;48.698;9.116;2023-04-25T12:48:12;8.70;99.90
770;DHT22;368;48.698;9.116;2023-04-25T12:50:40;8.90;99.90
770;DHT22;368;48.698;9.116;2023-04-25T12:53:07;8.70;99.90
770;DHT22;368;48.698;9.116;2023-04-25T12:55:34;9.20;99.90
770;DHT22;368;48.698;9.116;2023-04-25T12:58:01;9.30;99.90
770;DHT22;368;48.698;9.116;2023-04-25T13:00:28;9.30;99.90
770;DHT22;368;48.698;9.116;2023-04-25T13:02:56;9.60;99.90
770;DHT22;368;48.698;9.116;2023-04-25T13:05:23;9.50;99.90
770;DHT22;368;48.698;9.116;2023-04-25T13:07:51;9.40;99.90
770;DHT22;368;48.698;9.116;2023-04-25T13:10:18;9.40;99.90
770;DHT22;368;48.698;9.116;2023-04-25T13:12:44;9.10;99.90
770;DHT22;368;48.698;9.116;2023-04-25T13:15:12;9.60;99.90
770;DHT22;368;48.698;9.116;2023-04-25T13:17:40;9.70;99.90
770;DHT22;368;48.698;9.116;2023-04-25T13:20:08;9.90;99.90
770;DHT22;368;48.698;9.116;2023-04-25T13:22:35;9.70;99.90
770;DHT22;368;48.698;9.116;2023-04-25T13:25:05;9.70;99.90
770;DHT22;368;48.698;9.116;2023-04-25T13:27:33;10.00;99.90
770;DHT22;368;48.698;9.116;2023-04-25T13:30:01;9.90;99.90
770;DHT22;368;48.698;9.116;2023-04-25T13:32:32;10.20;99.90
770;DHT22;368;48.698;9.116;2023-04-25T13:34:59;10.50;99.90
770;DHT22;368;48.698;9.116;2023-04-25T13:37:26;10.30;99.90
770;DHT22;368;48.698;9.116;2023-04-25T13:39:55;10.70;99.90
770;DHT22;368;48.698;9.116;2023-04-25T13:42:23;10.80;99.90
770;DHT22;368;48.698;9.116;2023-04-25T13:44:50;10.50;99.90
770;DHT22;368;48.698;9.116;2023-04-25T13:47:17;10.50;99.90
770;DHT22;368;48.698;9.116;2023-04-25T13:49:43;11.10;99.90
770;DHT22;368;48.698;9.116;2023-04-25T13:52:10;11.80;99.90
770;DHT22;368;48.698;9.116;2023-04-25T13:54:37;11.90;99.90
770;DHT22;368;48.698;9.116;2023-04-25T13:57:04;11.90;99.90
770;DHT22;368;48.698;9.116;2023-04-25T13:59:32;11.80;99.90
770;DHT22;368;48.698;9.116;2023-04-25T14:01:59;11.80;99.90
770;DHT22;368;48.698;9.116;2023-04-25T14:04:27;10.80;99.90
770;DHT22;368;48.698;9.116;2023-04-25T14:06:54;10.10;99.90
770;DHT22;368;48.698;9.116;2023-04-25T14:09:21;10.10;99.90
770;DHT22;368;48.698;9.116;2023-04-25T14:11:51;10.00;99.90
770;DHT22;368;48.698;9.116;2023-04-25T14:14:18;10.50;99.90
770;DHT22;368;48.698;9.116;2023-04-25T14:16:46;11.50;99.90
770;DHT22;368;48.698;9.116;2023-04-25T14:19:13;11.60;99.90
770;DHT22;368;48.698;9.116;2023-04-25T14:21:40;12.60;99.90
770;DHT22;368;48.698;9.116;2023-04-25T14:24:07;13.00;99.90
770;DHT22;368;48.698;9.116;2023-04-25T14:26:34;13.60;98.80
770;DHT22;368;48.698;9.116;2023-04-25T14:29:03;13.10;98.90
770;DHT22;368;48.698;9.116;2023-04-25T14:31:30;12.00;99.70
770;DHT22;368;48.698;9.116;2023-04-25T14:33:59;11.80;99.90
770;DHT22;368;48.698;9.116;2023-04-25T14:36:26;11.90;99.90
770;DHT22;368;48.698;9.116;2023-04-25T14:38:52;14.00;98.50
770;DHT22;368;48.698;9.116;2023-04-25T14:41:19;15.60;96.40
770;DHT22;368;48.698;9.116;2023-04-25T14:43:46;14.80;95.20
770;DHT22;368;48.698;9.116;2023-04-25T14:46:13;12.60;96.30
770;DHT22;368;48.698;9.116;2023-04-25T14:48:40;11.80;99.60
770;DHT22;368;48.698;9.116;2023-04-25T14:51:08;11.30;99.80
770;DHT22;368;48.698;9.116;2023-04-25T14:53:35;11.60;99.90
770;DHT22;368;48.698;9.116;2023-04-25T14:56:03;12.30;99.90
770;DHT22;368;48.698;9.116;2023-04-25T14:58:31;13.90;97.80
770;DHT22;368;48.698;9.116;2023-04-25T15:00:58;14.40;96.80
770;DHT22;368;48.698;9.116;2023-04-25T15:03:25;14.60;96.60
770;DHT22;368;48.698;9.116;2023-04-25T15:05:52;13.80;95.40
770;DHT22;368;48.698;9.116;2023-04-25T15:08:21;12.60;97.20
770;DHT22;368;48.698;9.116;2023-04-25T15:10:47;12.40;97.10
770;DHT22;368;48.698;9.116;2023-04-25T15:13:14;11.90;97.90
770;DHT22;368;48.698;9.116;2023-04-25T15:15:41;12.10;97.50
770;DHT22;368;48.698;9.116;2023-04-25T15:18:08;12.50;97.40
770;DHT22;368;48.698;9.116;2023-04-25T15:20:35;12.50;96.60
770;DHT22;368;48.698;9.116;2023-04-25T15:23:02;12.20;96.10
770;DHT22;368;48.698;9.116;2023-04-25T15:25:31;12.00;97.50
770;DHT22;368;48.698;9.116;2023-04-25T15:27:58;11.70;97.50
770;DHT22;368;48.698;9.116;2023-04-25T15:30:25;11.90;97.70
770;DHT22;368;48.698;9.116;2023-04-25T15:32:52;11.50;97.70
770;DHT22;368;48.698;9.116;2023-04-25T15:35:19;11.60;98.20
770;DHT22;368;48.698;9.116;2023-04-25T15:37:45;12.10;97.60
770;DHT22;368;48.698;9.116;2023-04-25T15:40:14;12.10;96.80
770;DHT22;368;48.698;9.116;2023-04-25T15:42:44;12.40;95.40
770;DHT22;368;48.698;9.116;2023-04-25T15:45:13;11.50;97.10
770;DHT22;368;48.698;9.116;2023-04-25T15:47:42;11.10;97.30
770;DHT22;368;48.698;9.116;2023-04-25T15:50:09;11.20;98.10
770;DHT22;368;48.698;9.116;2023-04-25T15:52:37;11.20;96.90
770;DHT22;368;48.698;9.116;2023-04-25T15:55:05;11.10;97.30
770;DHT22;368;48.698;9.116;2023-04-25T15:57:33;11.30;98.70
770;DHT22;368;48.698;9.116;2023-04-25T16:00:01;11.20;96.50
770;DHT22;368;48.698;9.116;2023-04-25T16:02:32;11.80;97.00
770;DHT22;368;48.698;9.116;2023-04-25T16:04:59;11.40;96.90
770;DHT22;368;48.698;9.116;2023-04-25T16:07:26;11.20;97.20
770;DHT22;368;48.698;9.116;2023-04-25T16:09:52;11.00;97.00
770;DHT22;368;48.698;9.116;2023-04-25T16:12:19;11.10;98.30
770;DHT22;368;48.698;9.116;2023-04-25T16:14:46;11.10;97.40
770;DHT22;368;48.698;9.116;2023-04-25T16:17:14;10.90;98.30
770;DHT22;368;48.698;9.116;2023-04-25T16:19:41;11.00;99.30
770;DHT22;368;48.698;9.116;2023-04-25T16:22:08;10.90;99.20
770;DHT22;368;48.698;9.116;2023-04-25T16:24:37;10.90;97.30
770;DHT22;368;48.698;9.116;2023-04-25T16:27:04;10.50;98.40
770;DHT22;368;48.698;9.116;2023-04-25T16:29:31;10.60;98.60
770;DHT22;368;48.698;9.116;2023-04-25T16:31:58;11.00;98.90
770;DHT22;368;48.698;9.116;2023-04-25T16:34:26;10.50;99.00
770;DHT22;368;48.698;9.116;2023-04-25T16:36:53;10.90;99.30
770;DHT22;368;48.698;9.116;2023-04-25T16:39:19;10.90;99.40
770;DHT22;368;48.698;9.116;2023-04-25T16:41:47;10.60;97.80
770;DHT22;368;48.698;9.116;2023-04-25T16:44:14;11.00;98.60
770;DHT22;368;48.698;9.116;2023-04-25T16:46:42;10.70;99.20
770;DHT22;368;48.698;9.116;2023-04-25T16:49:09;11.00;99.60
770;DHT22;368;48.698;9.116;2023-04-25T16:51:37;10.90;99.10